Saint Michael, Minnesota
Current Conditions -  °F | °C
As of 3:35 PM on Saturday 22 Nov 2014 (Local Time) from KCFE Reporting Station
Haze Haze  
Wind Chill: 28°   Ceiling: 300
Heat Index: 34°   Visibility: 2mi
Dew Point: 32°   Wind: 7mph
Humidity: 93%   Direction: 150°SSE
Pressure: 29.65"   Gusts: NA
Location:  45.21°N, 93.66°W
Report Text: KCFE 222135Z AUTO 15006KT 2SM BR OVC003 01/00 A2965 RMK AO2 T00100000
Loading
Personal Weather Stations






























Interactive Weather Map New forecast layout! Learn more

10-Day Weather Forecast

Advertisements
Track Severe Weather on mobile